Latest Weather Observations for Halls Creek

IDD60801

Issued at 10:01 pm CST Tuesday 31 March 2015 (issued every 30 minutes, with the page automatically refreshed every 10 minutes)

About weather observations | Map of weather stations | Latest weather observations for NT | Other Formats
Station Details ID: 002012 Name: HALLS CREEK AIRPORT Lat: -18.23 Lon: 127.66 Height: 422.0 m
Data from the previous 72 hours. | See also: Recent months at Halls Creek
Date/Time
CST
Temp
°C
App
Temp
°C
Dew
Point
Rel
Hum
%
Delta-T
°C
Wind Press
QNH
hPa
Press
MSL
hPa
Rain
since 9 am
mm
Dir
 
Spd
km/h
Gust
km/h
Spd
kts
Gust
kts
31/10:00pm 28.5 29.9 15.3 44 8.2 SE 2 4 1 2 1015.3 - 0.0
31/09:30pm 28.7 30.2 16.7 48 7.6 ESE 4 6 2 3 1015.2 - 0.0
31/09:00pm 29.7 31.7 16.9 46 8.2 E 2 6 1 3 1014.8 - 0.0
31/08:30pm 29.6 32.5 19.0 53 7.0 SE 2 4 1 2 1014.4 - 0.0
31/08:00pm 30.6 33.2 17.4 45 8.5 CALM 0 0 0 0 1014.0 - 0.0
31/07:30pm 31.7 33.8 17.3 42 9.3 NNW 2 4 1 2 1013.7 1010.5 0.0
31/07:00pm 32.6 34.8 17.5 40 9.8 NW 2 4 1 2 1013.4 - 0.0
31/06:30pm 34.0 34.9 15.0 32 12.0 NNW 4 6 2 3 1013.1 - 0.0
31/06:00pm 34.2 35.8 15.9 33 11.7 ENE 2 4 1 2 1013.1 - 0.0
31/05:30pm 34.0 34.4 14.8 31 12.1 E 6 11 3 6 1013.0 - 0.0
31/05:00pm 34.5 34.2 14.4 30 12.6 ESE 9 22 5 12 1013.0 - 0.0
31/04:30pm 35.6 35.1 13.8 27 13.6 ENE 9 15 5 8 1013.0 1009.8 0.0
31/04:00pm 36.0 35.8 13.7 26 13.9 NNE 7 15 4 8 1012.8 - 0.0
31/03:30pm 35.1 35.1 14.2 28 13.1 ENE 7 17 4 9 1013.0 - 0.0
31/03:00pm 36.3 36.2 13.9 26 14.0 ENE 7 20 4 11 1013.2 - 0.0
31/02:30pm 36.2 35.8 14.0 26 13.9 ENE 9 20 5 11 1013.5 - 0.0
31/02:00pm 35.5 35.2 14.3 28 13.3 ESE 9 19 5 10 1014.0 - 0.0
31/01:30pm 33.8 33.7 14.9 32 11.9 ESE 9 20 5 11 1014.5 1011.4 0.0
31/01:00pm 34.2 34.2 15.2 32 12.0 E 9 19 5 10 1015.1 - 0.0
31/12:30pm 34.5 34.9 15.2 31 12.2 NE 7 15 4 8 1015.8 - 0.0
31/12:00pm 33.9 33.4 15.0 32 11.9 ESE 11 24 6 13 1016.3 - 0.0
31/11:30am 34.2 34.6 15.2 32 12.0 ENE 7 20 4 11 1016.8 - 0.0
31/11:00am 34.0 35.7 16.2 34 11.4 E 2 7 1 4 1016.7 - 0.0
31/10:00am 32.3 33.2 15.1 35 10.8 E 4 9 2 5 1017.1 - 0.0
31/09:30am 31.4 31.6 14.7 36 10.4 ESE 7 11 4 6 1017.1 - 0.0
31/08:00am 26.7 27.6 14.0 45 7.7 ESE 2 4 1 2 1016.5 - 0.0
31/07:00am 24.7 25.9 13.8 50 6.5 CALM 0 2 0 1 1015.9 - 0.0
31/06:30am 24.3 25.1 14.9 55 5.7 S 4 6 2 3 1015.6 - 0.0
31/06:00am 25.3 26.3 13.2 47 7.2 CALM 0 2 0 1 1015.1 - 0.0
31/05:30am 25.5 26.3 13.6 47 7.1 NNW 2 4 1 2 1014.9 - 0.0
31/05:00am 26.3 26.7 12.4 42 8.2 NNE 2 4 1 2 1014.6 - 0.0
31/04:30am 26.1 27.2 13.6 46 7.5 CALM 0 0 0 0 1014.5 1011.4 0.0
31/04:00am 25.8 27.0 13.8 47 7.2 CALM 0 0 0 0 1014.6 - 0.0
31/03:30am 25.7 26.7 13.3 46 7.4 CALM 0 0 0 0 1014.6 - 0.0
31/03:00am 25.8 26.4 13.2 45 7.5 SSE 2 4 1 2 1014.7 - 0.0
31/02:30am 27.2 27.6 12.5 40 8.7 NE 2 6 1 3 1015.2 - 0.0
31/02:00am 27.6 27.8 11.7 37 9.3 NNE 2 6 1 3 1015.3 - 0.0
31/01:30am 27.6 28.1 12.8 40 8.8 E 2 6 1 3 1015.3 1012.1 0.0
31/01:00am 27.6 28.0 12.6 39 8.9 ENE 2 6 1 3 1015.6 - 0.0
31/12:30am 27.4 28.3 13.0 41 8.6 CALM 0 2 0 1 1015.8 - 0.0
31/12:00am 28.2 28.8 13.0 39 9.1 NE 2 4 1 2 1016.0 - 0.0
 
Date/Time
CST
Temp
°C
App
Temp
°C
Dew
Point
Rel
Hum
%
Delta-T
°C
Wind Press
QNH
hPa
Press
MSL
hPa
Rain
since 9 am
mm
Dir
 
Spd
km/h
Gust
km/h
Spd
kts
Gust
kts
30/11:30pm 28.6 28.8 13.1 38 9.3 ESE 4 7 2 4 1016.2 - 0.0
30/11:00pm 29.3 28.6 11.4 33 10.5 ESE 6 9 3 5 1016.3 - 0.0
30/10:30pm 29.9 29.0 11.3 31 10.9 ESE 7 11 4 6 1016.2 1013.0 0.0
30/10:00pm 30.2 29.2 11.1 30 11.2 ESE 7 11 4 6 1016.2 - 0.0
30/09:30pm 30.8 29.7 10.8 29 11.7 ESE 7 11 4 6 1016.0 - 0.0
30/09:00pm 31.5 29.9 10.1 26 12.4 ESE 9 19 5 10 1015.5 - 0.0
30/08:30pm 31.3 30.4 10.8 28 12.0 ESE 6 11 3 6 1015.1 - 0.0
30/08:00pm 31.5 30.8 11.4 29 11.9 ESE 6 9 3 5 1014.6 - 0.0
30/07:30pm 32.4 31.7 11.4 27 12.5 ESE 6 13 3 7 1014.3 1011.1 0.0
30/07:00pm 33.6 32.2 9.5 22 14.0 ESE 7 13 4 7 1014.1 - 0.0
30/06:30pm 35.1 32.7 8.5 19 15.3 E 11 24 6 13 1013.7 - 0.0
30/06:00pm 35.9 33.8 8.3 18 15.9 ESE 9 20 5 11 1013.5 - 0.0
30/05:30pm 36.2 33.6 7.7 17 16.3 ENE 11 20 6 11 1013.4 - 0.0
30/05:00pm 36.5 34.7 7.9 17 16.4 E 7 20 4 11 1013.3 - 0.0
30/04:30pm 36.7 33.8 8.0 17 16.5 E 13 26 7 14 1013.5 1010.3 0.0
30/04:00pm 36.9 34.5 6.9 16 17.0 E 9 24 5 13 1013.6 - 0.0
30/03:30pm 36.6 33.3 6.6 16 16.9 E 13 26 7 14 1013.8 - 0.0
30/03:00pm 36.6 33.6 6.2 15 17.0 E 11 28 6 15 1014.0 - 0.0
30/02:30pm 36.8 34.2 6.0 15 17.2 ENE 9 26 5 14 1014.3 - 0.0
30/02:00pm 35.9 32.3 5.0 14 16.9 E 13 26 7 14 1014.8 - 0.0
30/01:30pm 35.4 31.7 4.6 14 16.7 ENE 13 28 7 15 1015.2 1012.0 0.0
30/01:00pm 35.0 30.5 4.4 15 16.5 E 17 33 9 18 1015.7 - 0.0
30/12:30pm 34.7 30.2 4.1 15 16.4 E 17 35 9 19 1016.1 - 0.0
30/12:00pm 33.8 28.7 3.1 14 16.1 E 19 35 10 19 1016.6 - 0.0
30/11:30am 34.2 30.5 4.4 15 16.0 ESE 13 24 7 13 1017.0 - 0.0
30/11:00am 32.6 28.6 3.0 15 15.4 E 13 24 7 13 1017.2 - 0.0
30/10:30am 30.8 27.0 4.1 18 14.0 E 13 24 7 13 1017.4 1014.3 0.2
30/10:00am 31.1 27.3 4.0 18 14.2 ENE 13 26 7 14 1017.3 - 0.2
30/09:30am 29.7 26.3 4.2 19 13.3 ENE 11 22 6 12 1017.2 - 0.2
30/09:00am 28.8 25.2 3.1 19 13.1 E 11 22 6 12 1017.3 - 0.2
30/08:30am 27.5 25.8 5.8 25 11.5 ENE 4 11 2 6 1017.1 - 0.2
30/08:00am 25.4 24.7 8.4 34 9.3 E 2 6 1 3 1017.0 - 0.2
30/07:30am 23.2 22.2 8.9 40 7.8 ESE 4 6 2 3 1016.7 1013.6 0.2
30/07:00am 22.8 22.1 8.6 40 7.7 ESE 2 4 1 2 1016.5 - 0.2
30/06:30am 23.4 21.7 7.4 35 8.5 ESE 6 7 3 4 1016.0 - 0.2
30/06:00am 22.8 21.9 9.1 41 7.5 ESE 4 6 2 3 1015.4 - 0.2
30/05:30am 23.1 22.6 9.3 41 7.6 E 2 4 1 2 1014.9 - 0.2
30/05:00am 23.2 22.4 9.7 42 7.5 ESE 4 6 2 3 1014.7 - 0.2
30/04:30am 23.4 22.6 9.5 41 7.7 E 4 6 2 3 1014.6 1011.5 0.2
30/04:00am 24.1 23.0 8.5 37 8.5 E 4 6 2 3 1014.5 - 0.2
30/03:30am 24.4 23.0 7.4 33 9.1 ESE 4 9 2 5 1014.5 - 0.2
30/03:00am 24.0 23.4 8.9 38 8.3 SW 2 4 1 2 1014.7 - 0.2
30/02:30am 24.9 24.0 7.9 33 9.2 SSE 2 4 1 2 1014.8 - 0.2
30/02:00am 25.0 24.2 8.3 34 9.1 ESE 2 4 1 2 1015.1 - 0.2
30/01:30am 25.1 24.4 8.7 35 9.0 ESE 2 4 1 2 1015.2 1012.0 0.2
30/01:00am 25.3 24.8 9.3 36 8.9 E 2 6 1 3 1015.5 - 0.2
30/12:30am 26.0 25.3 8.6 33 9.6 E 2 6 1 3 1015.8 - 0.2
30/12:00am 26.4 25.7 8.7 32 9.8 E 2 4 1 2 1016.1 - 0.2
 
Date/Time
CST
Temp
°C
App
Temp
°C
Dew
Point
Rel
Hum
%
Delta-T
°C
Wind Press
QNH
hPa
Press
MSL
hPa
Rain
since 9 am
mm
Dir
 
Spd
km/h
Gust
km/h
Spd
kts
Gust
kts
29/11:30pm 27.2 26.5 8.6 31 10.3 ENE 2 4 1 2 1016.3 - 0.2
29/11:00pm 27.5 26.2 7.8 28 10.8 ENE 4 6 2 3 1016.5 - 0.2
29/10:30pm 28.6 27.2 7.4 26 11.6 E 4 9 2 5 1016.6 1013.5 0.2
29/10:00pm 28.6 26.9 7.4 26 11.6 ESE 6 9 3 5 1016.7 - 0.2
29/09:30pm 29.3 27.3 7.2 25 12.1 ESE 7 11 4 6 1016.4 - 0.2
29/09:00pm 30.2 28.5 7.4 24 12.6 ESE 6 11 3 6 1016.2 - 0.2
29/08:30pm 29.5 28.1 8.9 27 11.6 ESE 6 9 3 5 1016.0 - 0.2
29/08:00pm 30.0 29.0 9.0 27 11.9 ESE 4 7 2 4 1015.6 - 0.2
29/07:30pm 31.2 29.5 7.4 22 13.2 ESE 6 9 3 5 1015.3 1012.1 0.2
29/07:00pm 32.2 30.6 7.8 22 13.7 ESE 6 9 3 5 1014.8 - 0.2
29/06:30pm 33.9 31.3 5.9 17 15.4 ESE 9 17 5 9 1014.4 - 0.2
29/06:00pm 35.0 32.8 5.2 15 16.3 ESE 6 15 3 8 1014.1 - 0.2
29/05:30pm 35.6 31.0 3.7 13 17.1 ESE 17 30 9 16 1013.9 - 0.2
29/05:00pm 35.9 33.5 5.1 15 16.9 E 7 17 4 9 1013.8 - 0.2
29/04:30pm 36.1 33.1 4.1 13 17.3 E 9 20 5 11 1013.6 1010.4 0.2
29/04:00pm 36.2 33.5 3.9 13 17.4 NE 7 17 4 9 1013.7 - 0.0
29/03:30pm 36.6 33.4 5.2 14 17.3 SE 11 24 6 13 1013.7 - 0.0
29/03:00pm 35.9 32.0 3.6 13 17.3 ESE 13 26 7 14 1014.0 - 0.0
29/02:30pm 36.1 33.3 5.1 14 17.0 E 9 32 5 17 1014.3 - 0.0
29/02:00pm 36.0 33.9 5.9 15 16.7 E 6 17 3 9 1014.7 - 0.0
29/01:30pm 35.4 32.6 5.3 15 16.5 E 9 22 5 12 1015.2 1012.0 0.0
29/01:00pm 34.7 31.4 4.5 15 16.3 E 11 24 6 13 1015.7 - 0.0
29/12:30pm 34.4 31.0 5.9 17 15.7 SE 13 22 7 12 1016.1 - 0.0
29/12:00pm 33.4 30.3 5.4 17 15.2 ENE 11 20 6 11 1016.7 - 0.0
29/11:30am 33.4 29.9 5.4 17 15.2 E 13 24 7 13 1017.0 - 0.0
29/11:00am 32.8 29.8 6.2 19 14.6 E 11 26 6 14 1017.2 - 0.0
29/10:30am 31.7 28.7 6.2 20 13.9 ESE 11 19 6 10 1017.4 1014.3 0.0
29/10:00am 30.5 28.2 7.3 23 12.8 ESE 9 19 5 10 1017.4 - 0.0
29/09:30am 30.0 27.4 7.9 25 12.3 ESE 11 20 6 11 1017.2 - 0.0
29/09:00am 29.4 27.5 9.0 28 11.5 SE 9 17 5 9 1017.0 - 0.0
29/08:30am 27.6 27.1 11.9 37 9.2 SE 6 9 3 5 1016.7 - 0.0
29/08:00am 25.4 25.4 11.3 41 8.1 WSW 2 2 1 1 1016.4 - 0.0
29/07:30am 23.6 23.6 11.1 45 7.1 E 2 4 1 2 1016.1 1012.9 0.0
29/07:00am 23.8 23.4 11.2 45 7.2 ESE 4 6 2 3 1015.8 - 0.0
29/06:30am 24.0 24.6 13.2 50 6.4 SE 2 4 1 2 1015.4 - 0.0
29/06:00am 23.7 23.7 12.3 48 6.6 SSE 4 4 2 2 1015.1 - 0.0
29/05:30am 24.1 24.3 11.8 46 7.1 S 2 4 1 2 1014.7 - 0.0
29/05:00am 24.7 24.5 10.6 41 8.0 S 2 6 1 3 1014.4 - 0.0
29/04:30am 24.7 24.7 12.4 46 7.2 S 4 6 2 3 1014.4 1011.3 0.0
29/04:00am 24.8 24.5 11.6 43 7.6 SW 4 6 2 3 1014.5 - 0.0
29/03:30am 24.9 24.6 11.3 42 7.8 SW 4 6 2 3 1014.7 - 0.0
29/03:00am 25.2 25.6 12.4 45 7.5 ESE 2 4 1 2 1014.7 - 0.0
29/02:30am 25.4 26.1 12.2 43 7.7 CALM 0 4 0 2 1015.2 - 0.0
29/02:00am 25.7 25.3 11.1 40 8.4 SE 4 6 2 3 1015.3 - 0.0
29/01:30am 25.6 25.7 11.6 41 8.1 SSE 2 4 1 2 1015.7 1012.5 0.0
29/01:00am 26.0 26.4 12.4 42 8.0 S 2 4 1 2 1016.0 - 0.0
29/12:30am 26.5 26.3 10.3 36 9.2 SSW 2 4 1 2 1016.1 - 0.0
29/12:00am 26.4 25.9 10.7 37 9.0 SW 4 4 2 2 1016.2 - 0.0

Other Formats:

Comma delimited format used in spreadsheet applications
http://www.bom.gov.au/fwo/IDD60801/IDD60801.94212.axf

JavaScript Object Notation format (JSON) in row-major order
http://www.bom.gov.au/fwo/IDD60801/IDD60801.94212.json